Time;durP1;ratioP1;P1;durP2;ratioP2;P2;SDS_P1;SDS_P2;PMS_P1;PMS_P2;Temp;Humidity;BMP_temperature;BMP_pressure;BME280_temperature;BME280_humidity;BME280_pressure;Samples;Min_cycle;Max_cycle;Signal;HPM_P1;HPM_P2
2021/10/17 00:02:19;;;;;;;0.77;0.50;;;6.70;99.90;;;;;;5017133;28;20474;-77
2021/10/17 00:04:45;;;;;;;0.70;0.40;;;6.70;99.90;;;;;;5017318;28;20446;-76
2021/10/17 00:07:13;;;;;;;0.50;0.50;;;6.80;99.90;;;;;;5016722;28;20455;-77
2021/10/17 00:09:40;;;;;;;0.50;0.50;;;6.80;99.90;;;;;;5017011;28;20959;-77
2021/10/17 00:12:08;;;;;;;0.40;0.40;;;6.80;99.90;;;;;;5016404;28;20998;-76
2021/10/17 00:14:36;;;;;;;0.50;0.50;;;6.80;99.90;;;;;;5016784;28;20481;-76
2021/10/17 00:17:03;;;;;;;0.40;0.37;;;6.80;99.90;;;;;;5016690;28;20439;-77
2021/10/17 00:19:32;;;;;;;0.50;0.50;;;6.90;99.90;;;;;;5016955;28;20459;-77
2021/10/17 00:21:58;;;;;;;2.40;0.60;;;7.00;99.90;;;;;;5016439;28;20464;-77
2021/10/17 00:24:25;;;;;;;0.60;0.60;;;7.00;99.90;;;;;;5016898;28;20443;-76
2021/10/17 00:26:52;;;;;;;2.47;2.30;;;7.00;99.90;;;;;;5016495;28;20447;-79
2021/10/17 00:29:18;;;;;;;0.30;0.30;;;7.00;99.90;;;;;;5016577;28;20451;-79
2021/10/17 00:31:45;;;;;;;0.60;0.47;;;7.00;99.90;;;;;;5016219;28;20475;-79
2021/10/17 00:34:12;;;;;;;0.40;0.40;;;7.00;99.90;;;;;;5016706;28;20483;-79
2021/10/17 00:36:40;;;;;;;0.80;0.40;;;7.00;99.90;;;;;;5015816;28;21034;-79
2021/10/17 00:39:07;;;;;;;1.70;1.13;;;7.10;99.90;;;;;;5016285;28;20454;-79
2021/10/17 00:41:34;;;;;;;0.60;0.60;;;7.10;99.90;;;;;;5016068;28;20484;-79
2021/10/17 00:44:02;;;;;;;1.70;0.63;;;7.10;99.90;;;;;;5016460;28;20454;-79
2021/10/17 00:46:30;;;;;;;0.97;0.73;;;7.20;99.90;;;;;;5015728;28;20794;-80
2021/10/17 00:48:57;;;;;;;1.20;1.10;;;7.30;99.90;;;;;;5015956;28;20471;-79
2021/10/17 00:51:24;;;;;;;0.83;0.40;;;7.30;99.90;;;;;;5016437;28;20837;-80
2021/10/17 00:53:54;;;;;;;1.13;0.97;;;7.40;99.90;;;;;;5015978;28;20449;-79
2021/10/17 00:56:21;;;;;;;0.70;0.50;;;7.40;99.90;;;;;;5016249;28;20461;-80
2021/10/17 00:58:48;;;;;;;1.43;0.70;;;7.30;99.90;;;;;;5015358;28;20821;-76
2021/10/17 01:01:15;;;;;;;0.80;0.80;;;7.40;99.90;;;;;;5015288;28;20467;-77
2021/10/17 01:03:41;;;;;;;0.60;0.60;;;7.40;99.90;;;;;;5015654;28;20841;-76
2021/10/17 01:06:12;;;;;;;0.77;0.67;;;7.40;99.90;;;;;;5015687;28;20451;-79
2021/10/17 01:08:39;;;;;;;0.60;0.40;;;7.40;99.90;;;;;;5015654;28;20451;-80
2021/10/17 01:11:08;;;;;;;0.43;0.43;;;7.50;99.90;;;;;;5015847;28;20502;-79
2021/10/17 01:13:36;;;;;;;1.57;0.57;;;7.50;99.90;;;;;;5016017;28;20447;-79
2021/10/17 01:16:02;;;;;;;0.60;0.60;;;7.50;99.90;;;;;;5015124;28;20478;-80
2021/10/17 01:18:29;;;;;;;0.60;0.60;;;7.50;99.90;;;;;;5015583;28;20447;-79
2021/10/17 01:20:57;;;;;;;2.93;0.90;;;7.50;99.90;;;;;;5015735;28;20447;-80
2021/10/17 01:23:24;;;;;;;5.60;0.93;;;7.50;99.90;;;;;;5015647;28;20454;-80
2021/10/17 01:25:51;;;;;;;0.50;0.50;;;7.40;99.90;;;;;;5015391;28;20459;-80
2021/10/17 01:28:18;;;;;;;0.67;0.67;;;7.40;99.90;;;;;;5015579;28;20452;-79
2021/10/17 01:30:46;;;;;;;0.37;0.37;;;7.40;99.90;;;;;;5015376;28;20454;-80
2021/10/17 01:33:13;;;;;;;1.87;1.77;;;7.40;99.90;;;;;;5012062;28;20471;-77
2021/10/17 01:35:40;;;;;;;0.70;0.70;;;7.50;99.90;;;;;;5015331;28;20475;-77
2021/10/17 01:38:10;;;;;;;0.40;0.40;;;7.50;99.90;;;;;;5014821;28;20452;-77
2021/10/17 01:40:37;;;;;;;0.60;0.60;;;7.50;99.90;;;;;;5015038;28;20486;-77
2021/10/17 01:43:05;;;;;;;0.70;0.47;;;7.50;99.90;;;;;;5015056;28;20955;-77
2021/10/17 01:45:31;;;;;;;0.60;0.60;;;7.50;99.90;;;;;;5014649;28;20822;-77
2021/10/17 01:47:58;;;;;;;0.50;0.50;;;7.50;99.90;;;;;;5004699;28;20851;-77
2021/10/17 01:50:25;;;;;;;0.40;0.40;;;7.50;99.90;;;;;;5014771;28;20454;-77
2021/10/17 01:52:52;;;;;;;1.73;1.00;;;7.50;99.90;;;;;;5014946;28;20467;-77
2021/10/17 01:55:20;;;;;;;0.80;0.80;;;7.50;99.90;;;;;;5014878;28;20471;-77
2021/10/17 01:57:47;;;;;;;0.40;0.30;;;7.40;99.90;;;;;;5015414;28;20451;-77
2021/10/17 02:00:14;;;;;;;0.50;0.50;;;7.40;99.90;;;;;;5015158;28;20951;-77
2021/10/17 02:02:41;;;;;;;0.67;0.67;;;7.40;99.90;;;;;;5014811;28;20471;-77
2021/10/17 02:05:08;;;;;;;0.73;0.50;;;7.40;99.90;;;;;;5015542;28;20452;-77
2021/10/17 02:07:35;;;;;;;0.90;0.80;;;7.40;99.90;;;;;;5015101;28;20450;-77
2021/10/17 02:10:02;;;;;;;0.40;0.40;;;7.40;99.90;;;;;;5014377;28;20452;-77
2021/10/17 02:12:30;;;;;;;0.90;0.50;;;7.40;99.90;;;;;;5014229;28;20479;-77
2021/10/17 02:14:57;;;;;;;1.20;0.63;;;7.40;99.90;;;;;;5014767;28;20483;-77
2021/10/17 02:17:24;;;;;;;0.53;0.53;;;7.40;99.90;;;;;;5014771;28;20498;-80
2021/10/17 02:19:51;;;;;;;0.67;0.67;;;7.50;99.90;;;;;;5014492;28;20970;-80
2021/10/17 02:22:18;;;;;;;0.67;0.67;;;7.50;99.90;;;;;;5014683;28;20467;-81
2021/10/17 02:24:44;;;;;;;0.73;0.67;;;7.50;99.90;;;;;;5014719;28;20444;-81
2021/10/17 02:27:11;;;;;;;1.03;0.50;;;7.50;99.90;;;;;;5014326;28;20459;-76
2021/10/17 02:29:39;;;;;;;1.23;1.17;;;7.50;99.90;;;;;;5014501;28;20447;-76
2021/10/17 02:32:06;;;;;;;0.80;0.53;;;7.50;99.90;;;;;;5013760;28;20991;-76
2021/10/17 02:34:33;;;;;;;1.10;1.10;;;7.50;99.90;;;;;;5014049;28;20498;-76
2021/10/17 02:37:00;;;;;;;0.80;0.80;;;7.50;99.90;;;;;;5013948;28;20943;-76
2021/10/17 02:39:27;;;;;;;0.83;0.83;;;7.60;99.90;;;;;;5014435;28;20448;-76
2021/10/17 02:41:53;;;;;;;0.60;0.60;;;7.50;99.90;;;;;;5013742;28;20859;-76
2021/10/17 02:44:20;;;;;;;1.47;0.43;;;7.60;99.90;;;;;;5014318;28;20451;-76
2021/10/17 02:46:48;;;;;;;2.00;0.80;;;7.60;99.90;;;;;;5014026;28;20470;-76
2021/10/17 02:49:15;;;;;;;3.07;2.17;;;7.60;99.90;;;;;;5013797;28;21026;-76
2021/10/17 02:51:42;;;;;;;0.60;0.60;;;7.60;99.90;;;;;;5013849;28;20478;-76
2021/10/17 02:54:08;;;;;;;0.63;0.63;;;7.60;99.90;;;;;;5013659;28;20487;-77
2021/10/17 02:56:35;;;;;;;0.83;0.83;;;7.70;99.90;;;;;;5013737;28;20891;-76
2021/10/17 02:59:02;;;;;;;0.97;0.90;;;7.70;99.90;;;;;;5013826;28;20443;-76
2021/10/17 03:01:29;;;;;;;0.90;0.53;;;7.70;99.90;;;;;;5013948;28;20475;-76
2021/10/17 03:03:57;;;;;;;2.00;0.90;;;7.70;99.90;;;;;;5013897;28;20789;-76
2021/10/17 03:06:26;;;;;;;0.40;0.40;;;7.70;99.90;;;;;;5013530;28;20454;-76
2021/10/17 03:08:53;;;;;;;0.57;0.57;;;7.70;99.90;;;;;;5013147;28;20514;-76
2021/10/17 03:11:20;;;;;;;0.40;0.40;;;7.70;99.90;;;;;;5013791;28;20482;-76
2021/10/17 03:13:46;;;;;;;0.43;0.43;;;7.70;99.90;;;;;;5013292;28;20447;-76
2021/10/17 03:16:13;;;;;;;1.30;1.30;;;7.70;99.90;;;;;;5013803;28;20490;-77
2021/10/17 03:18:40;;;;;;;2.47;1.47;;;7.70;99.90;;;;;;5013551;28;20447;-77
2021/10/17 03:21:08;;;;;;;0.30;0.30;;;7.70;99.90;;;;;;5013255;28;20482;-77
2021/10/17 03:23:35;;;;;;;0.77;0.70;;;7.70;99.90;;;;;;5013368;28;20448;-77
2021/10/17 03:26:02;;;;;;;0.87;0.80;;;7.70;99.90;;;;;;5013683;28;20451;-77
2021/10/17 03:28:28;;;;;;;3.00;1.20;;;7.70;99.90;;;;;;5013092;28;20450;-77
2021/10/17 03:30:55;;;;;;;0.80;0.80;;;7.80;99.90;;;;;;5013347;28;20448;-77
2021/10/17 03:33:22;;;;;;;0.97;0.93;;;7.80;99.90;;;;;;5013640;28;20452;-77
2021/10/17 03:35:49;;;;;;;0.70;0.60;;;7.80;99.90;;;;;;5013144;28;21002;-77
2021/10/17 03:38:17;;;;;;;1.40;0.67;;;7.80;99.90;;;;;;5013583;28;20454;-77
2021/10/17 03:40:44;;;;;;;3.33;1.20;;;7.80;99.90;;;;;;5012814;28;20966;-77
2021/10/17 03:43:11;;;;;;;0.73;0.73;;;7.80;99.90;;;;;;5013233;28;20934;-77
2021/10/17 03:45:39;;;;;;;0.50;0.50;;;7.80;99.90;;;;;;5013227;28;20939;-77
2021/10/17 03:48:06;;;;;;;3.17;2.53;;;7.80;99.90;;;;;;5013077;28;20487;-77
2021/10/17 03:50:32;;;;;;;1.60;1.07;;;7.80;99.90;;;;;;5013197;28;20479;-77
2021/10/17 03:52:59;;;;;;;2.37;1.07;;;7.70;99.90;;;;;;5013924;28;20481;-77
2021/10/17 03:55:27;;;;;;;0.73;0.70;;;7.70;99.90;;;;;;5012719;28;20494;-77
2021/10/17 03:57:54;;;;;;;0.40;0.40;;;7.70;99.90;;;;;;5013216;28;20440;-77
2021/10/17 04:00:22;;;;;;;1.00;0.60;;;7.70;99.90;;;;;;5013081;28;20447;-77
2021/10/17 04:02:48;;;;;;;1.77;1.37;;;7.70;99.90;;;;;;5013037;28;20872;-77
2021/10/17 04:05:16;;;;;;;2.60;1.27;;;7.60;99.90;;;;;;5013335;28;20475;-77
2021/10/17 04:07:42;;;;;;;0.50;0.50;;;7.60;99.90;;;;;;5012762;28;20951;-78
2021/10/17 04:10:10;;;;;;;1.27;1.17;;;7.60;99.90;;;;;;4993682;28;20445;-77
2021/10/17 04:12:38;;;;;;;1.70;1.03;;;7.50;99.90;;;;;;4993304;28;20484;-77
2021/10/17 04:15:06;;;;;;;2.23;1.90;;;7.50;99.90;;;;;;4993547;28;20999;-77
2021/10/17 04:17:33;;;;;;;0.80;0.80;;;7.40;99.90;;;;;;5002076;28;20455;-77
2021/10/17 04:19:59;;;;;;;1.13;0.97;;;7.40;99.90;;;;;;5013203;28;20456;-77
2021/10/17 04:22:27;;;;;;;3.53;1.30;;;7.50;99.90;;;;;;5012935;28;20467;-77
2021/10/17 04:24:54;;;;;;;0.90;0.90;;;7.50;99.90;;;;;;5013167;28;20870;-77
2021/10/17 04:27:20;;;;;;;2.63;2.43;;;7.50;99.90;;;;;;5012835;28;20444;-77
2021/10/17 04:29:48;;;;;;;1.93;1.23;;;7.40;99.90;;;;;;5013119;28;20474;-78
2021/10/17 04:32:15;;;;;;;1.10;1.00;;;7.40;99.90;;;;;;5012943;28;20468;-77
2021/10/17 04:34:42;;;;;;;0.60;0.50;;;7.40;99.90;;;;;;5015470;28;20451;-77
2021/10/17 04:37:09;;;;;;;0.60;0.60;;;7.40;99.90;;;;;;5016008;28;21001;-78
2021/10/17 04:39:37;;;;;;;4.17;1.00;;;7.30;99.90;;;;;;5016380;28;20459;-77
2021/10/17 04:42:04;;;;;;;0.80;0.57;;;7.30;99.90;;;;;;5016319;28;20475;-77
2021/10/17 04:44:33;;;;;;;1.13;1.13;;;7.30;99.90;;;;;;5016277;28;20456;-77
2021/10/17 04:47:01;;;;;;;1.60;1.60;;;7.40;99.90;;;;;;5016259;28;20935;-77
2021/10/17 04:49:28;;;;;;;0.50;0.50;;;7.30;99.90;;;;;;5015761;28;21029;-77
2021/10/17 04:51:55;;;;;;;1.30;1.20;;;7.30;99.90;;;;;;5016070;28;20467;-78
2021/10/17 04:54:22;;;;;;;0.83;0.60;;;7.30;99.90;;;;;;5015443;28;20458;-77
2021/10/17 04:56:49;;;;;;;1.53;1.43;;;7.30;99.90;;;;;;5016103;28;20554;-77
2021/10/17 04:59:20;;;;;;;0.60;0.60;;;7.30;99.90;;;;;;5016063;28;20451;-77
2021/10/17 05:01:47;;;;;;;2.00;1.90;;;7.30;99.90;;;;;;5016203;28;20860;-77
2021/10/17 05:04:15;;;;;;;1.53;0.83;;;7.30;99.90;;;;;;5015958;28;20452;-77
2021/10/17 05:06:42;;;;;;;1.10;0.70;;;7.30;99.90;;;;;;5015798;28;20450;-77
2021/10/17 05:09:09;;;;;;;0.60;0.60;;;7.30;99.90;;;;;;5015662;28;20443;-77
2021/10/17 05:11:35;;;;;;;0.73;0.73;;;7.30;99.90;;;;;;5015730;28;20471;-77
2021/10/17 05:14:02;;;;;;;0.40;0.40;;;7.30;99.90;;;;;;5016082;28;20456;-77
2021/10/17 05:16:29;;;;;;;1.03;0.57;;;7.30;99.90;;;;;;5015402;28;20506;-77
2021/10/17 05:18:56;;;;;;;0.50;0.47;;;7.30;99.90;;;;;;5015975;28;20447;-77
2021/10/17 05:21:25;;;;;;;0.43;0.43;;;7.30;99.90;;;;;;5015465;28;20858;-77
2021/10/17 05:23:51;;;;;;;0.40;0.40;;;7.30;99.90;;;;;;5015426;28;20452;-77
2021/10/17 05:26:18;;;;;;;0.80;0.30;;;7.30;99.90;;;;;;5015651;28;20447;-77
2021/10/17 05:28:45;;;;;;;0.90;0.90;;;7.30;99.90;;;;;;5015830;28;20455;-76
2021/10/17 05:31:12;;;;;;;0.50;0.50;;;7.30;99.90;;;;;;5015381;28;20533;-76
2021/10/17 05:33:39;;;;;;;0.50;0.50;;;7.30;99.90;;;;;;5015670;28;20451;-76
2021/10/17 05:36:06;;;;;;;0.70;0.70;;;7.40;99.90;;;;;;5014859;28;20925;-77
2021/10/17 05:38:34;;;;;;;1.80;1.80;;;7.30;99.90;;;;;;5015300;28;20444;-77
2021/10/17 05:41:01;;;;;;;1.23;0.73;;;7.30;99.90;;;;;;5014827;28;21021;-77
2021/10/17 05:43:28;;;;;;;1.10;1.00;;;7.30;99.90;;;;;;5014895;28;20452;-76
2021/10/17 05:45:54;;;;;;;1.83;1.27;;;7.30;99.90;;;;;;5015051;28;20443;-76
2021/10/17 05:48:21;;;;;;;1.90;0.77;;;7.30;99.90;;;;;;5014805;28;20482;-76
2021/10/17 05:50:48;;;;;;;4.10;1.67;;;7.30;99.90;;;;;;5015300;28;20443;-76
2021/10/17 05:53:15;;;;;;;5.70;1.57;;;7.30;99.90;;;;;;5014883;28;20439;-76
2021/10/17 05:55:43;;;;;;;1.13;0.83;;;7.30;99.90;;;;;;5015145;28;20487;-76
2021/10/17 05:58:09;;;;;;;1.03;0.50;;;7.30;99.90;;;;;;5014932;28;20451;-76
2021/10/17 06:00:36;;;;;;;1.20;1.07;;;7.30;99.90;;;;;;5014574;28;20935;-76
2021/10/17 06:03:03;;;;;;;1.10;1.03;;;7.30;99.90;;;;;;5014284;28;21013;-80
2021/10/17 06:05:29;;;;;;;1.80;1.70;;;7.20;99.90;;;;;;5015078;28;20463;-77
2021/10/17 06:07:56;;;;;;;0.90;0.87;;;7.20;99.90;;;;;;5014737;28;20448;-77
2021/10/17 06:10:23;;;;;;;0.60;0.60;;;7.10;99.90;;;;;;5014676;28;20974;-77
2021/10/17 06:12:51;;;;;;;1.03;0.93;;;7.10;99.90;;;;;;5014599;28;20475;-77
2021/10/17 06:15:18;;;;;;;0.43;0.43;;;7.10;99.90;;;;;;5015030;28;20456;-77
2021/10/17 06:17:45;;;;;;;1.03;1.03;;;7.10;99.90;;;;;;5014563;28;20487;-76
2021/10/17 06:20:12;;;;;;;1.17;0.50;;;7.00;99.90;;;;;;5014418;28;20845;-76
2021/10/17 06:22:39;;;;;;;0.47;0.47;;;7.00;99.90;;;;;;5014756;28;20479;-78
2021/10/17 06:25:07;;;;;;;0.60;0.50;;;7.00;99.90;;;;;;5014590;28;20448;-80
2021/10/17 06:27:34;;;;;;;1.17;1.10;;;7.00;99.90;;;;;;5014834;28;20443;-78
2021/10/17 06:30:02;;;;;;;0.50;0.50;;;7.00;99.90;;;;;;5014403;28;20455;-78
2021/10/17 06:32:28;;;;;;;1.57;0.90;;;7.00;99.90;;;;;;5014511;28;20464;-79
2021/10/17 06:34:56;;;;;;;2.00;1.90;;;7.10;99.90;;;;;;5014114;28;20455;-79
2021/10/17 06:37:22;;;;;;;1.00;1.00;;;7.10;99.90;;;;;;5014740;28;20475;-79
2021/10/17 06:39:49;;;;;;;0.70;0.70;;;7.10;99.90;;;;;;5014183;28;20451;-79
2021/10/17 06:42:16;;;;;;;2.10;0.80;;;7.20;99.90;;;;;;5014401;28;20468;-79
2021/10/17 06:44:43;;;;;;;0.40;0.40;;;7.20;99.90;;;;;;5014381;28;20814;-77
2021/10/17 06:47:11;;;;;;;1.17;1.17;;;7.20;99.90;;;;;;5014281;28;20478;-76
2021/10/17 06:49:38;;;;;;;0.60;0.43;;;7.30;99.90;;;;;;5013662;28;20487;-77
2021/10/17 06:52:05;;;;;;;0.73;0.70;;;7.30;99.90;;;;;;5014220;28;20472;-77
2021/10/17 06:54:31;;;;;;;1.57;1.20;;;7.40;99.90;;;;;;5014066;28;20864;-79
2021/10/17 06:56:58;;;;;;;0.63;0.63;;;7.40;99.90;;;;;;5013095;28;20484;-79
2021/10/17 06:59:25;;;;;;;0.50;0.50;;;7.50;99.90;;;;;;5013914;28;20544;-80
2021/10/17 07:01:52;;;;;;;1.63;1.53;;;7.50;99.90;;;;;;5014120;28;20478;-80
2021/10/17 07:04:20;;;;;;;1.30;0.40;;;7.50;99.90;;;;;;5013798;28;20448;-76
2021/10/17 07:06:46;;;;;;;1.63;1.43;;;7.50;99.90;;;;;;5013743;28;20447;-79
2021/10/17 07:09:13;;;;;;;0.87;0.87;;;7.50;99.90;;;;;;5014017;28;20444;-76
2021/10/17 07:11:40;;;;;;;1.13;0.80;;;7.50;99.90;;;;;;5013614;28;20474;-79
2021/10/17 07:14:07;;;;;;;1.20;1.20;;;7.50;99.90;;;;;;5013860;28;20471;-79
2021/10/17 07:16:34;;;;;;;0.57;0.53;;;7.50;99.90;;;;;;5013634;28;20924;-79
2021/10/17 07:19:00;;;;;;;1.37;0.80;;;7.50;99.90;;;;;;5013592;28;20448;-79
2021/10/17 07:21:28;;;;;;;6.03;0.53;;;7.50;99.90;;;;;;5013202;28;20464;-80
2021/10/17 07:23:55;;;;;;;1.03;1.03;;;7.50;99.90;;;;;;5013820;28;20454;-80
2021/10/17 07:26:22;;;;;;;0.90;0.60;;;7.50;99.90;;;;;;5013225;28;20801;-79
2021/10/17 07:28:48;;;;;;;0.50;0.50;;;7.50;99.90;;;;;;5013784;28;20458;-79
2021/10/17 07:31:15;;;;;;;0.90;0.90;;;7.60;99.90;;;;;;5013248;28;20476;-80
2021/10/17 07:33:42;;;;;;;0.83;0.60;;;7.60;99.90;;;;;;5013271;28;20460;-78
2021/10/17 07:36:09;;;;;;;0.90;0.63;;;7.70;99.90;;;;;;5013159;28;20483;-79
2021/10/17 07:38:37;;;;;;;0.63;0.60;;;7.70;99.90;;;;;;5012866;28;20450;-79
2021/10/17 07:41:04;;;;;;;1.00;0.40;;;7.80;99.90;;;;;;5013474;28;20463;-78
2021/10/17 07:43:30;;;;;;;0.50;0.50;;;7.80;99.90;;;;;;5012878;28;20459;-79
2021/10/17 07:46:01;;;;;;;1.00;1.00;;;7.90;99.90;;;;;;5012923;28;20466;-79
2021/10/17 07:48:28;;;;;;;2.23;1.30;;;7.90;99.90;;;;;;5013100;28;20491;-80
2021/10/17 07:50:55;;;;;;;2.20;1.20;;;8.00;99.90;;;;;;5013116;28;20448;-80
2021/10/17 07:53:21;;;;;;;4.60;1.57;;;8.00;99.90;;;;;;5013082;28;20447;-79
2021/10/17 07:55:49;;;;;;;0.83;0.60;;;8.10;99.90;;;;;;5013025;28;20455;-76
2021/10/17 07:58:16;;;;;;;0.90;0.90;;;8.20;99.90;;;;;;5012899;28;20487;-80
2021/10/17 08:00:43;;;;;;;0.70;0.63;;;8.20;99.90;;;;;;5012902;28;20946;-80
2021/10/17 08:03:10;;;;;;;0.90;0.73;;;8.30;99.90;;;;;;5013036;28;20444;-79
2021/10/17 08:05:36;;;;;;;2.00;0.90;;;8.30;99.90;;;;;;5013065;28;20448;-79
2021/10/17 08:08:04;;;;;;;1.00;0.73;;;8.30;99.90;;;;;;5014438;28;20943;-77
2021/10/17 08:10:31;;;;;;;1.00;0.93;;;8.40;99.90;;;;;;5016887;28;20825;-77
2021/10/17 08:12:59;;;;;;;1.73;1.63;;;8.50;99.90;;;;;;5016753;28;20471;-78
2021/10/17 08:15:26;;;;;;;1.67;1.07;;;8.60;99.90;;;;;;5016735;28;20456;-79
2021/10/17 08:17:54;;;;;;;0.97;0.50;;;8.80;99.90;;;;;;5016971;28;20494;-76
2021/10/17 08:20:21;;;;;;;0.80;0.50;;;8.90;99.90;;;;;;5016818;28;20451;-76
2021/10/17 08:22:47;;;;;;;0.53;0.53;;;8.90;99.90;;;;;;5016882;28;20471;-79
2021/10/17 08:25:14;;;;;;;0.70;0.70;;;9.10;99.90;;;;;;5016925;28;20458;-80
2021/10/17 08:27:42;;;;;;;3.63;1.17;;;9.20;99.90;;;;;;5016890;28;20439;-76
2021/10/17 08:30:11;;;;;;;1.60;1.60;;;9.30;99.90;;;;;;5016213;28;20452;-76
2021/10/17 08:32:38;;;;;;;0.83;0.73;;;9.40;99.90;;;;;;5016444;28;20467;-80
2021/10/17 08:35:06;;;;;;;2.03;0.90;;;9.60;99.90;;;;;;5016409;28;20451;-75
2021/10/17 08:37:33;;;;;;;1.23;1.00;;;9.80;99.90;;;;;;5016654;28;20510;-80
2021/10/17 08:40:00;;;;;;;1.40;0.50;;;10.00;99.90;;;;;;5016496;28;20491;-79
2021/10/17 08:42:27;;;;;;;1.20;0.93;;;10.10;99.90;;;;;;5016597;28;20551;-77
2021/10/17 08:44:56;;;;;;;2.00;0.90;;;10.20;99.90;;;;;;5016628;28;20463;-80
2021/10/17 08:47:27;;;;;;;0.80;0.57;;;10.40;99.90;;;;;;5016480;28;20447;-77
2021/10/17 08:49:55;;;;;;;1.90;1.10;;;10.70;99.90;;;;;;5016273;28;20542;-77
2021/10/17 08:52:22;;;;;;;2.27;1.17;;;11.20;99.90;;;;;;5015794;28;20463;-77
2021/10/17 08:54:49;;;;;;;2.27;0.83;;;11.40;99.90;;;;;;5016236;28;20452;-79
2021/10/17 08:57:16;;;;;;;0.70;0.70;;;11.40;99.90;;;;;;5015921;28;20490;-76
2021/10/17 08:59:46;;;;;;;1.80;1.37;;;11.20;99.90;;;;;;5016108;28;20502;-79
2021/10/17 09:02:14;;;;;;;3.23;2.10;;;11.20;99.90;;;;;;5016298;28;20858;-81
2021/10/17 09:04:44;;;;;;;2.23;1.63;;;11.40;99.90;;;;;;5016036;28;20451;-80
2021/10/17 09:07:18;;;;;;;2.07;1.93;;;11.90;99.90;;;;;;5016068;28;20459;-76
2021/10/17 09:10:05;;;;;;;1.93;1.83;;;12.30;99.90;;;;;;5016221;28;20455;-76
2021/10/17 09:12:31;;;;;;;2.13;1.63;;;12.90;99.90;;;;;;5015791;28;20479;-75
2021/10/17 09:15:18;;;;;;;3.53;1.03;;;13.60;99.90;;;;;;5016063;28;20444;-76
2021/10/17 09:18:07;;;;;;;4.50;1.50;;;14.20;99.90;;;;;;5015366;28;20467;-79
2021/10/17 09:20:36;;;;;;;2.00;1.40;;;14.50;99.90;;;;;;5015198;28;20531;-78
2021/10/17 09:23:05;;;;;;;4.00;1.37;;;14.90;99.90;;;;;;5015575;28;20491;-77
2021/10/17 09:25:33;;;;;;;2.53;1.20;;;14.90;99.90;;;;;;5015869;28;20452;-79
2021/10/17 09:28:00;;;;;;;2.37;1.20;;;14.90;99.90;;;;;;5015251;28;20954;-79
2021/10/17 09:30:27;;;;;;;2.73;1.80;;;15.00;99.90;;;;;;5015531;28;20439;-79
2021/10/17 09:33:10;;;;;;;3.73;2.00;;;14.80;99.90;;;;;;5014992;28;21110;-76
2021/10/17 09:35:39;;;;;;;3.33;1.20;;;14.60;99.90;;;;;;5015450;28;20439;-76
2021/10/17 09:38:05;;;;;;;1.57;1.10;;;14.20;99.90;;;;;;5015543;28;20499;-76
2021/10/17 09:40:33;;;;;;;1.30;1.20;;;13.80;99.90;;;;;;5015227;28;20821;-76
2021/10/17 09:43:09;;;;;;;3.23;1.83;;;13.50;99.90;;;;;;5015131;28;20472;-76
2021/10/17 09:45:36;;;;;;;2.50;1.73;;;13.30;99.90;;;;;;5015247;28;20538;-75
2021/10/17 09:48:03;;;;;;;1.60;1.50;;;13.20;99.90;;;;;;5014985;28;20483;-76
2021/10/17 09:50:30;;;;;;;3.03;1.33;;;13.10;99.90;;;;;;5014565;28;21029;-76
2021/10/17 09:53:04;;;;;;;1.17;1.17;;;13.10;99.90;;;;;;5015253;28;20486;-76
2021/10/17 09:55:32;;;;;;;3.17;1.67;;;13.40;99.90;;;;;;5014973;28;20440;-76
2021/10/17 09:58:00;;;;;;;2.37;1.87;;;13.90;99.90;;;;;;5015145;28;20498;-76
2021/10/17 10:00:32;;;;;;;2.20;1.40;;;14.50;99.90;;;;;;5014912;28;20498;-76
2021/10/17 10:03:00;;;;;;;4.77;1.90;;;15.40;99.90;;;;;;5015353;28;20982;-76
2021/10/17 10:05:28;;;;;;;2.63;2.43;;;16.60;99.90;;;;;;5014743;28;20479;-76
2021/10/17 10:08:01;;;;;;;3.97;1.30;;;17.40;99.90;;;;;;5014711;28;20806;-76
2021/10/17 10:10:29;;;;;;;2.30;2.00;;;18.00;99.90;;;;;;5014661;28;20454;-76
2021/10/17 10:12:58;;;;;;;3.70;2.10;;;18.60;99.90;;;;;;5014507;28;21011;-76
2021/10/17 10:15:25;;;;;;;3.63;2.20;;;18.80;99.90;;;;;;5014683;28;20447;-76
2021/10/17 10:17:54;;;;;;;4.60;2.23;;;19.00;99.90;;;;;;5014759;28;20519;-76
2021/10/17 10:20:22;;;;;;;2.50;1.60;;;18.80;99.90;;;;;;5014116;28;20986;-76
2021/10/17 10:22:49;;;;;;;1.43;1.30;;;18.40;99.90;;;;;;5014450;28;20998;-76
2021/10/17 10:25:18;;;;;;;3.53;2.80;;;17.90;99.90;;;;;;5014420;28;20456;-76
2021/10/17 10:27:46;;;;;;;2.80;2.23;;;17.70;99.90;;;;;;5014531;28;20525;-76
2021/10/17 10:30:20;;;;;;;4.80;3.23;;;17.80;99.90;;;;;;5014461;28;20459;-76
2021/10/17 10:33:09;;;;;;;5.30;3.23;;;17.80;99.90;;;;;;5013413;28;20470;-76
2021/10/17 10:35:36;;;;;;;4.90;2.60;;;17.70;99.90;;;;;;5014397;28;20909;-76
2021/10/17 10:38:04;;;;;;;3.33;2.40;;;17.40;99.90;;;;;;5013551;28;20838;-76
2021/10/17 10:40:32;;;;;;;3.13;2.13;;;17.10;99.90;;;;;;5014489;28;20470;-76
2021/10/17 10:43:13;;;;;;;3.47;2.30;;;16.70;99.90;;;;;;5014316;28;20472;-76
2021/10/17 10:45:39;;;;;;;2.83;2.07;;;16.00;99.90;;;;;;5014523;28;20440;-77
2021/10/17 10:48:25;;;;;;;3.80;2.00;;;15.40;99.90;;;;;;5013732;28;20488;-77
2021/10/17 10:50:54;;;;;;;1.53;1.40;;;15.00;99.90;;;;;;5014181;28;20432;-76
2021/10/17 10:53:54;;;;;;;3.60;2.60;;;14.50;99.90;;;;;;5014136;28;20451;-76
2021/10/17 10:56:49;;;;;;;1.93;1.83;;;14.20;99.90;;;;;;5013847;28;20444;-79
2021/10/17 10:59:18;;;;;;;3.80;2.53;;;14.00;99.90;;;;;;5014871;28;20506;-75
2021/10/17 11:02:01;;;;;;;1.80;1.23;;;13.80;99.90;;;;;;5013699;28;21036;-76
2021/10/17 11:05:07;;;;;;;4.10;1.43;;;13.70;99.90;;;;;;5013755;28;20447;-76
2021/10/17 11:07:36;;;;;;;10.73;2.47;;;13.70;99.90;;;;;;5014019;28;20893;-76
2021/10/17 11:10:42;;;;;;;1.40;1.30;;;13.80;99.90;;;;;;5014007;28;20502;-76
2021/10/17 11:13:45;;;;;;;3.37;2.13;;;13.90;99.90;;;;;;5013634;28;20427;-76
2021/10/17 11:16:20;;;;;;;2.87;2.67;;;14.00;99.90;;;;;;5004415;28;20546;-76
2021/10/17 11:18:47;;;;;;;1.60;1.50;;;14.00;99.90;;;;;;5013862;28;20466;-76
2021/10/17 11:21:15;;;;;;;3.53;1.93;;;14.00;99.90;;;;;;5013761;28;20471;-76
2021/10/17 11:23:42;;;;;;;2.07;1.97;;;13.90;99.90;;;;;;5013859;28;20436;-76
2021/10/17 11:26:11;;;;;;;3.43;1.90;;;13.90;99.90;;;;;;5013479;28;20957;-76
2021/10/17 11:28:47;;;;;;;4.40;2.07;;;13.90;99.90;;;;;;5013742;28;20446;-76
2021/10/17 11:31:16;;;;;;;3.60;1.83;;;14.00;99.90;;;;;;5013550;28;20859;-77
2021/10/17 11:33:44;;;;;;;2.10;1.70;;;14.10;99.90;;;;;;5013730;28;20451;-76
2021/10/17 11:36:14;;;;;;;2.20;2.00;;;14.10;99.90;;;;;;5013302;28;20456;-77
2021/10/17 11:38:42;;;;;;;2.60;1.80;;;13.90;99.90;;;;;;5013573;28;20483;-77
2021/10/17 11:41:10;;;;;;;4.23;1.97;;;14.00;99.90;;;;;;5013500;28;20479;-76
2021/10/17 11:43:41;;;;;;;1.17;1.07;;;14.10;99.90;;;;;;5013163;28;20446;-77
2021/10/17 11:46:10;;;;;;;1.70;1.13;;;14.20;99.90;;;;;;5013599;28;20440;-78
2021/10/17 11:48:37;;;;;;;3.17;2.20;;;14.20;99.90;;;;;;5013220;28;20482;-76
2021/10/17 11:51:07;;;;;;;2.63;1.63;;;14.10;99.90;;;;;;5013376;28;20467;-76
2021/10/17 11:53:34;;;;;;;2.07;1.97;;;13.90;99.90;;;;;;5013498;28;20448;-76
2021/10/17 11:56:01;;;;;;;2.90;1.77;;;13.70;99.90;;;;;;5013474;28;20443;-76
2021/10/17 11:58:30;;;;;;;1.13;0.93;;;13.60;99.90;;;;;;5013082;28;20843;-76
2021/10/17 12:01:06;;;;;;;3.10;1.40;;;13.40;99.90;;;;;;5013407;28;20792;-76
2021/10/17 12:03:33;;;;;;;3.77;1.30;;;13.50;99.90;;;;;;5013462;28;20428;-76
2021/10/17 12:06:02;;;;;;;2.30;1.40;;;13.40;99.90;;;;;;5013361;28;20486;-76
2021/10/17 12:08:32;;;;;;;4.53;1.17;;;13.30;99.90;;;;;;5013383;28;20436;-77
2021/10/17 12:11:02;;;;;;;2.07;1.97;;;13.10;99.90;;;;;;5013249;28;20466;-76
2021/10/17 12:13:30;;;;;;;3.27;3.00;;;13.10;99.90;;;;;;5013332;28;20443;-77
2021/10/17 12:16:07;;;;;;;2.27;2.07;;;13.00;99.90;;;;;;5013311;28;20439;-76
2021/10/17 12:18:35;;;;;;;2.03;1.80;;;13.00;99.90;;;;;;5013234;28;20471;-76
2021/10/17 12:21:02;;;;;;;3.17;1.57;;;13.00;99.90;;;;;;5012846;28;20472;-76
2021/10/17 12:23:30;;;;;;;2.87;1.47;;;13.00;99.90;;;;;;5013198;28;20432;-76
2021/10/17 12:25:57;;;;;;;3.00;1.33;;;12.90;99.90;;;;;;5013176;28;20561;-76
2021/10/17 12:28:24;;;;;;;2.47;1.00;;;12.90;99.90;;;;;;5013542;28;20467;-76
2021/10/17 12:30:52;;;;;;;4.83;1.73;;;12.90;99.90;;;;;;5013150;28;20439;-76
2021/10/17 12:33:35;;;;;;;3.67;1.17;;;12.90;99.90;;;;;;5013210;28;20797;-76
2021/10/17 12:36:03;;;;;;;2.13;1.93;;;13.00;99.90;;;;;;5013178;28;20797;-76
2021/10/17 12:38:33;;;;;;;3.07;1.70;;;13.00;99.90;;;;;;5013090;28;20452;-76
2021/10/17 12:41:01;;;;;;;1.93;1.60;;;13.00;99.90;;;;;;5013064;28;20439;-76
2021/10/17 12:43:30;;;;;;;5.10;2.63;;;13.00;99.90;;;;;;5013095;28;20440;-76
2021/10/17 12:46:09;;;;;;;2.17;1.70;;;13.00;99.90;;;;;;5012749;28;20803;-76
2021/10/17 12:48:39;;;;;;;2.93;1.40;;;12.90;99.90;;;;;;5012705;28;20471;-76
2021/10/17 12:51:26;;;;;;;2.87;2.63;;;12.90;99.90;;;;;;5013176;28;20810;-76
2021/10/17 12:54:09;;;;;;;2.10;1.67;;;12.80;99.90;;;;;;5012959;28;20443;-76
2021/10/17 12:56:37;;;;;;;4.10;1.77;;;12.70;99.90;;;;;;5016457;28;20423;-76
2021/10/17 12:59:13;;;;;;;5.40;2.83;;;12.70;99.90;;;;;;5016034;28;21010;-76
2021/10/17 13:02:03;;;;;;;3.17;1.33;;;12.80;99.90;;;;;;5016253;28;20467;-76